Time;durP1;ratioP1;P1;durP2;ratioP2;P2;SDS_P1;SDS_P2;PMS_P1;PMS_P2;Temp;Humidity;BMP_temperature;BMP_pressure;BME280_temperature;BME280_humidity;BME280_pressure;Samples;Min_cycle;Max_cycle;Signal;HPM_P1;HPM_P2
2023/12/11 00:01:58;;;;;;;0.20;0.20;;;;;;;7.80;80.74;94491.63;4367032;32;20289;-64
2023/12/11 00:04:24;;;;;;;0.50;0.30;;;;;;;7.70;82.54;94481.25;4350446;32;20307;-65
2023/12/11 00:06:50;;;;;;;0.00;0.00;;;;;;;7.63;84.37;94486.94;4350913;32;20213;-63
2023/12/11 00:09:17;;;;;;;0.00;0.00;;;;;;;7.73;84.66;94481.44;4347551;32;20238;-65
2023/12/11 00:11:43;;;;;;;0.50;0.43;;;;;;;7.84;84.78;94479.38;4374809;32;20359;-64
2023/12/11 00:14:10;;;;;;;0.10;0.10;;;;;;;7.83;85.81;94480.47;4335232;32;20414;-65
2023/12/11 00:16:36;;;;;;;2.63;0.50;;;;;;;7.94;85.89;94473.88;4355946;32;20316;-64
2023/12/11 00:19:03;;;;;;;0.27;0.27;;;;;;;7.99;86.48;94492.25;4345022;32;20394;-64
2023/12/11 00:21:30;;;;;;;0.10;0.10;;;;;;;8.09;86.38;94478.84;4339507;32;20289;-63
2023/12/11 00:23:56;;;;;;;0.00;0.00;;;;;;;8.15;86.86;94482.13;4308300;32;20292;-63
2023/12/11 00:26:22;;;;;;;0.20;0.20;;;;;;;8.22;87.56;94495.72;4367848;32;20227;-63
2023/12/11 00:28:48;;;;;;;0.20;0.20;;;;;;;8.26;88.31;94501.97;4359492;32;20353;-59
2023/12/11 00:31:14;;;;;;;0.00;0.00;;;;;;;8.33;88.34;94499.72;4382095;32;20216;-64
2023/12/11 00:33:42;;;;;;;0.10;0.10;;;;;;;8.30;88.84;94504.81;4328774;32;20391;-64
2023/12/11 00:36:11;;;;;;;0.10;0.10;;;;;;;8.38;88.74;94506.75;4323172;32;20292;-64
2023/12/11 00:38:37;;;;;;;1.70;0.30;;;;;;;8.42;89.97;94494.50;4362379;32;20289;-64
2023/12/11 00:41:09;;;;;;;0.03;0.03;;;;;;;8.45;90.54;94496.56;4348492;32;20335;-63
2023/12/11 00:43:35;;;;;;;0.17;0.17;;;;;;;8.48;91.61;94477.47;4380788;32;20207;-63
2023/12/11 00:46:03;;;;;;;0.43;0.20;;;;;;;8.49;92.39;94474.53;4362859;32;20373;-64
2023/12/11 00:48:29;;;;;;;0.00;0.00;;;;;;;8.56;93.17;94474.09;4356818;32;20345;-63
2023/12/11 00:50:56;;;;;;;0.10;0.10;;;;;;;8.59;93.48;94486.69;4359986;32;20340;-63
2023/12/11 00:53:26;;;;;;;0.00;0.00;;;;;;;8.53;94.28;94482.59;4342490;32;20340;-63
2023/12/11 00:55:54;;;;;;;0.00;0.00;;;;;;;8.64;94.52;94483.16;4365656;32;20316;-63
2023/12/11 00:58:20;;;;;;;0.00;0.00;;;;;;;8.64;94.78;94502.44;4375083;32;20292;-63
2023/12/11 01:00:47;;;;;;;0.27;0.23;;;;;;;8.65;98.38;94493.44;4368375;32;20307;-64
2023/12/11 01:03:14;;;;;;;0.00;0.00;;;;;;;8.53;100.00;94504.53;4377113;32;20258;-64
2023/12/11 01:05:41;;;;;;;0.00;0.00;;;;;;;8.49;100.00;94511.53;4368217;32;20343;-65
2023/12/11 01:08:08;;;;;;;0.17;0.17;;;;;;;8.49;100.00;94518.69;4378200;32;20366;-64
2023/12/11 01:10:36;;;;;;;0.00;0.00;;;;;;;8.53;100.00;94515.09;4360429;32;20292;-64
2023/12/11 01:13:04;;;;;;;0.53;0.20;;;;;;;8.55;100.00;94512.94;4376276;32;20289;-64
2023/12/11 01:15:31;;;;;;;0.00;0.00;;;;;;;8.60;100.00;94520.00;4370294;32;20323;-63
2023/12/11 01:17:57;;;;;;;0.00;0.00;;;;;;;8.58;100.00;94528.22;4363895;32;20326;-63
2023/12/11 01:20:24;;;;;;;0.50;0.10;;;;;;;8.61;100.00;94532.12;4341536;32;20419;-63
2023/12/11 01:22:49;;;;;;;0.00;0.00;;;;;;;8.68;100.00;94534.34;4340187;32;20284;-63
2023/12/11 01:25:17;;;;;;;0.37;0.37;;;;;;;8.72;100.00;94541.41;4349424;32;20276;-65
2023/12/11 01:27:43;;;;;;;0.10;0.10;;;;;;;8.72;100.00;94564.41;4335488;32;20192;-64
2023/12/11 01:30:10;;;;;;;0.27;0.27;;;;;;;8.73;100.00;94563.34;4345943;32;20364;-64
2023/12/11 01:32:36;;;;;;;0.20;0.20;;;;;;;8.73;100.00;94563.34;4269935;32;20320;-64
2023/12/11 01:35:05;;;;;;;0.20;0.20;;;;;;;8.69;100.00;94573.72;4292976;32;20302;-64
2023/12/11 01:37:30;;;;;;;0.20;0.20;;;;;;;8.68;100.00;94569.50;4339999;32;20350;-64
2023/12/11 01:39:57;;;;;;;0.10;0.10;;;;;;;8.60;100.00;94567.56;4369739;32;20301;-63
2023/12/11 01:42:29;;;;;;;0.23;0.23;;;;;;;8.54;100.00;94584.63;4349953;32;20248;-64
2023/12/11 01:44:54;;;;;;;0.10;0.10;;;;;;;8.45;100.00;94589.06;4369796;32;20300;-64
2023/12/11 01:47:20;;;;;;;0.10;0.10;;;;;;;8.36;100.00;94580.25;4327044;32;20341;-63
2023/12/11 01:49:47;;;;;;;0.03;0.03;;;;;;;8.37;100.00;94595.81;4302939;32;20224;-64
2023/12/11 01:52:15;;;;;;;0.07;0.07;;;;;;;8.33;100.00;94573.72;4363267;32;20213;-64
2023/12/11 01:54:47;;;;;;;0.40;0.30;;;;;;;8.17;100.00;94577.72;4346867;32;20385;-64
2023/12/11 01:57:14;;;;;;;0.10;0.10;;;;;;;8.07;100.00;94557.59;4339281;32;20279;-64
2023/12/11 01:59:41;;;;;;;0.00;0.00;;;;;;;8.11;100.00;94558.56;4368486;32;20438;-63
2023/12/11 02:02:09;;;;;;;0.50;0.20;;;;;;;8.15;100.00;94558.75;4350043;32;20311;-63
2023/12/11 02:04:34;;;;;;;0.20;0.13;;;;;;;8.09;100.00;94570.50;4337313;32;20315;-64
2023/12/11 02:06:59;;;;;;;0.00;0.00;;;;;;;8.08;100.00;94567.09;4332507;32;20296;-63
2023/12/11 02:09:29;;;;;;;0.10;0.10;;;;;;;8.10;100.00;94574.72;4335597;32;20253;-63
2023/12/11 02:11:59;;;;;;;0.10;0.10;;;;;;;8.07;100.00;94565.53;4344137;32;20196;-62
2023/12/11 02:14:27;;;;;;;0.00;0.00;;;;;;;8.00;100.00;94570.41;4322982;32;20301;-63
2023/12/11 02:16:58;;;;;;;0.10;0.10;;;;;;;8.05;100.00;94559.75;4321824;32;20292;-64
2023/12/11 02:19:27;;;;;;;0.00;0.00;;;;;;;7.98;100.00;94543.50;4352039;32;20277;-64
2023/12/11 02:21:57;;;;;;;0.53;0.27;;;;;;;7.90;100.00;94541.56;4330257;32;20352;-63
2023/12/11 02:24:33;;;;;;;0.33;0.20;;;;;;;7.95;100.00;94546.75;4335779;32;20297;-63
2023/12/11 02:26:59;;;;;;;0.00;0.00;;;;;;;8.01;100.00;94555.34;4336912;32;20285;-64
2023/12/11 02:29:27;;;;;;;0.03;0.03;;;;;;;8.03;100.00;94585.69;4350422;32;20378;-64
2023/12/11 02:31:56;;;;;;;0.10;0.10;;;;;;;8.13;100.00;94613.72;4326404;32;20204;-63
2023/12/11 02:34:24;;;;;;;0.00;0.00;;;;;;;8.15;100.00;94615.00;4361948;32;20285;-63
2023/12/11 02:36:52;;;;;;;0.00;0.00;;;;;;;8.11;100.00;94582.31;4359892;32;20304;-63
2023/12/11 02:39:18;;;;;;;0.20;0.20;;;;;;;7.91;100.00;94582.72;4345114;32;20304;-59
2023/12/11 02:41:44;;;;;;;0.10;0.10;;;;;;;7.91;100.00;94582.72;4341759;32;20324;-64
2023/12/11 02:44:11;;;;;;;0.37;0.37;;;;;;;7.79;100.00;94591.16;4343885;32;20227;-64
2023/12/11 02:46:39;;;;;;;0.30;0.30;;;;;;;7.75;100.00;94584.09;4324884;32;20335;-64
2023/12/11 02:49:05;;;;;;;0.10;0.10;;;;;;;7.65;100.00;94585.09;4324744;32;20372;-64
2023/12/11 02:51:30;;;;;;;0.10;0.10;;;;;;;7.65;100.00;94579.03;4320563;32;20319;-64
2023/12/11 02:53:57;;;;;;;0.07;0.07;;;;;;;7.69;100.00;94580.78;4342550;32;20395;-63
2023/12/11 02:56:25;;;;;;;0.27;0.27;;;;;;;7.56;100.00;94582.34;4370221;32;20199;-63
2023/12/11 02:58:51;;;;;;;0.00;0.00;;;;;;;7.58;100.00;94574.91;4378269;32;20338;-64
2023/12/11 03:01:20;;;;;;;1.50;0.23;;;;;;;7.55;100.00;94583.41;4340704;32;20317;-64
2023/12/11 03:03:46;;;;;;;0.10;0.10;;;;;;;7.59;100.00;94589.69;4365484;32;20281;-64
2023/12/11 03:06:19;;;;;;;0.23;0.23;;;;;;;7.65;100.00;94608.06;4347921;32;20371;-64
2023/12/11 03:08:46;;;;;;;0.10;0.10;;;;;;;7.67;100.00;94614.63;4321414;32;20200;-64
2023/12/11 03:11:13;;;;;;;0.00;0.00;;;;;;;7.73;100.00;94623.22;4325608;32;20364;-64
2023/12/11 03:13:42;;;;;;;0.20;0.20;;;;;;;7.72;100.00;94629.56;4352680;32;20367;-64
2023/12/11 03:16:13;;;;;;;0.10;0.10;;;;;;;7.70;100.00;94613.22;4358892;32;20315;-64
2023/12/11 03:18:41;;;;;;;1.13;0.30;;;;;;;7.65;100.00;94634.47;4329257;32;20382;-63
2023/12/11 03:21:08;;;;;;;0.20;0.20;;;;;;;7.65;100.00;94643.16;4351072;32;20348;-64
2023/12/11 03:23:33;;;;;;;0.10;0.10;;;;;;;7.73;100.00;94645.13;4359919;32;20353;-63
2023/12/11 03:26:02;;;;;;;0.60;0.30;;;;;;;7.73;100.00;94654.91;4358167;32;20308;-63
2023/12/11 03:28:29;;;;;;;0.00;0.00;;;;;;;7.71;100.00;94651.75;4348905;32;20193;-63
2023/12/11 03:30:54;;;;;;;0.20;0.20;;;;;;;7.64;100.00;94657.44;4365563;32;20345;-63
2023/12/11 03:33:21;;;;;;;0.20;0.20;;;;;;;7.55;100.00;94651.25;4352518;32;20320;-63
2023/12/11 03:35:48;;;;;;;0.10;0.10;;;;;;;7.50;100.00;94646.84;4384499;32;20231;-64
2023/12/11 03:38:14;;;;;;;0.00;0.00;;;;;;;7.45;100.00;94654.06;4359567;32;20309;-63
2023/12/11 03:40:41;;;;;;;0.00;0.00;;;;;;;7.44;100.00;94653.28;4283844;32;20390;-64
2023/12/11 03:43:07;;;;;;;0.37;0.37;;;;;;;7.46;100.00;94645.09;4327961;32;20309;-63
2023/12/11 03:45:34;;;;;;;0.20;0.20;;;;;;;7.53;100.00;94650.75;4318304;32;20451;-63
2023/12/11 03:48:02;;;;;;;1.53;0.53;;;;;;;7.49;100.00;94655.81;4372051;32;20296;-63
2023/12/11 03:50:29;;;;;;;0.30;0.17;;;;;;;7.55;100.00;94659.94;4351856;32;20374;-63
2023/12/11 03:52:56;;;;;;;0.93;0.43;;;;;;;7.57;100.00;94652.53;4350906;32;20288;-63
2023/12/11 03:55:22;;;;;;;0.47;0.23;;;;;;;7.56;100.00;94658.09;4361858;32;20365;-63
2023/12/11 03:57:50;;;;;;;2.03;0.87;;;;;;;7.58;100.00;94651.47;4358648;32;20309;-64
2023/12/11 04:00:15;;;;;;;0.10;0.10;;;;;;;7.64;100.00;94656.66;4342190;32;20253;-64
2023/12/11 04:02:41;;;;;;;0.37;0.30;;;;;;;7.59;100.00;94649.59;4350982;32;20362;-64
2023/12/11 04:05:07;;;;;;;0.97;0.27;;;;;;;7.61;100.00;94651.94;4387521;32;20231;-63
2023/12/11 04:07:38;;;;;;;0.20;0.20;;;;;;;7.66;100.00;94650.00;4379900;32;20192;-64
2023/12/11 04:10:04;;;;;;;0.10;0.10;;;;;;;7.62;100.00;94649.03;4374218;32;20304;-64
2023/12/11 04:12:29;;;;;;;0.10;0.10;;;;;;;7.55;100.00;94638.84;4364285;32;20315;-64
2023/12/11 04:14:54;;;;;;;0.20;0.20;;;;;;;7.61;100.00;94636.13;4386065;32;20257;-64
2023/12/11 04:17:20;;;;;;;0.40;0.40;;;;;;;7.51;100.00;94637.84;4382112;32;20215;-63
2023/12/11 04:19:45;;;;;;;0.10;0.10;;;;;;;7.69;100.00;94633.56;4355608;32;20279;-64
2023/12/11 04:22:10;;;;;;;0.07;0.07;;;;;;;7.68;100.00;94631.25;4371668;32;20185;-64
2023/12/11 04:24:36;;;;;;;0.13;0.13;;;;;;;7.70;100.00;94634.34;4367266;32;20211;-65
2023/12/11 04:27:01;;;;;;;0.10;0.10;;;;;;;7.66;100.00;94617.56;4365154;32;20196;-64
2023/12/11 04:29:26;;;;;;;1.30;0.67;;;;;;;7.70;100.00;94607.97;4364794;32;20197;-64
2023/12/11 04:31:53;;;;;;;0.00;0.00;;;;;;;7.90;100.00;94618.91;4362598;32;20193;-63
2023/12/11 04:34:28;;;;;;;0.93;0.67;;;;;;;7.90;100.00;94629.47;4361656;32;20208;-64
2023/12/11 04:36:57;;;;;;;0.10;0.10;;;;;;;7.86;100.00;94625.09;4322778;32;20293;-63
2023/12/11 04:39:25;;;;;;;0.50;0.40;;;;;;;7.80;100.00;94615.69;4335776;32;20309;-64
2023/12/11 04:41:50;;;;;;;0.53;0.53;;;;;;;7.87;100.00;94618.75;4337583;32;20300;-63
2023/12/11 04:44:17;;;;;;;0.77;0.40;;;;;;;7.83;100.00;94617.75;4347672;32;20299;-64
2023/12/11 04:46:43;;;;;;;0.13;0.13;;;;;;;7.84;100.00;94620.09;4339913;32;20216;-63
2023/12/11 04:49:10;;;;;;;0.10;0.10;;;;;;;7.77;100.00;94618.91;4365645;32;20378;-65
2023/12/11 04:51:37;;;;;;;0.10;0.10;;;;;;;7.83;100.00;94617.75;4354528;32;20307;-64
2023/12/11 04:54:05;;;;;;;0.00;0.00;;;;;;;7.89;100.00;94609.47;4363824;32;20292;-63
2023/12/11 04:56:31;;;;;;;0.20;0.20;;;;;;;8.03;100.00;94608.66;4337066;32;20304;-64
2023/12/11 04:58:58;;;;;;;0.13;0.13;;;;;;;8.06;100.00;94606.22;4361603;32;20330;-63
2023/12/11 05:01:27;;;;;;;0.00;0.00;;;;;;;7.98;100.00;94596.34;4376078;32;20324;-63
2023/12/11 05:03:53;;;;;;;0.13;0.13;;;;;;;8.15;100.00;94593.09;4352219;32;20401;-63
2023/12/11 05:06:18;;;;;;;0.10;0.10;;;;;;;8.23;100.00;94585.25;4364383;32;20300;-59
2023/12/11 05:08:45;;;;;;;0.10;0.10;;;;;;;8.24;100.00;94578.91;4377688;32;20253;-64
2023/12/11 05:11:10;;;;;;;0.00;0.00;;;;;;;8.23;100.00;94564.13;4352736;32;20188;-64
2023/12/11 05:13:35;;;;;;;0.03;0.03;;;;;;;8.28;100.00;94557.94;4374611;32;20293;-64
2023/12/11 05:16:02;;;;;;;0.00;0.00;;;;;;;8.31;100.00;94559.22;4375905;32;20248;-65
2023/12/11 05:18:29;;;;;;;0.40;0.40;;;;;;;8.28;100.00;94550.03;4354273;32;20230;-64
2023/12/11 05:20:56;;;;;;;0.20;0.20;;;;;;;8.26;100.00;94538.97;4325657;32;20403;-63
2023/12/11 05:23:25;;;;;;;0.10;0.10;;;;;;;8.24;100.00;94523.41;4357784;32;20298;-63
2023/12/11 05:25:52;;;;;;;0.30;0.30;;;;;;;8.18;100.00;94519.31;4378738;32;20204;-63
2023/12/11 05:28:22;;;;;;;0.13;0.13;;;;;;;8.15;100.00;94521.75;4351139;32;20356;-64
2023/12/11 05:30:49;;;;;;;0.00;0.00;;;;;;;8.14;100.00;94534.19;4360870;32;20332;-64
2023/12/11 05:33:16;;;;;;;0.10;0.10;;;;;;;8.10;100.00;94554.38;4321897;32;20365;-64
2023/12/11 05:35:42;;;;;;;0.10;0.10;;;;;;;8.12;100.00;94573.31;4350367;32;20251;-64
2023/12/11 05:38:11;;;;;;;0.10;0.10;;;;;;;8.24;100.00;94586.81;4351162;32;20334;-64
2023/12/11 05:40:37;;;;;;;0.17;0.17;;;;;;;8.18;100.00;94566.87;4372012;32;20355;-64
2023/12/11 05:43:05;;;;;;;0.10;0.00;;;;;;;8.15;100.00;94567.44;4361871;32;20339;-64
2023/12/11 05:45:31;;;;;;;0.20;0.20;;;;;;;8.08;100.00;94572.38;4365672;32;20296;-64
2023/12/11 05:47:58;;;;;;;0.00;0.00;;;;;;;8.02;100.00;94568.25;4350241;32;20305;-64
2023/12/11 05:50:24;;;;;;;0.20;0.20;;;;;;;8.00;100.00;94565.13;4345690;32;20312;-63
2023/12/11 05:52:51;;;;;;;0.30;0.30;;;;;;;8.15;100.00;94572.72;4349665;32;20292;-63
2023/12/11 05:55:18;;;;;;;0.40;0.40;;;;;;;7.92;100.00;94574.50;4368673;32;20355;-64
2023/12/11 05:57:45;;;;;;;0.10;0.10;;;;;;;7.84;100.00;94555.97;4367857;32;20300;-64
2023/12/11 06:00:14;;;;;;;0.23;0.23;;;;;;;7.87;100.00;94542.16;4379555;32;20281;-64
2023/12/11 06:02:41;;;;;;;0.20;0.13;;;;;;;7.89;100.00;94532.09;4377921;32;21188;-64
2023/12/11 06:05:08;;;;;;;0.27;0.27;;;;;;;7.87;100.00;94540.31;4357600;32;20312;-63
2023/12/11 06:07:35;;;;;;;0.10;0.10;;;;;;;7.92;100.00;94539.41;4368827;32;20362;-64
2023/12/11 06:10:01;;;;;;;0.10;0.10;;;;;;;7.92;100.00;94539.41;4348953;32;20311;-63
2023/12/11 06:12:29;;;;;;;2.73;0.33;;;;;;;7.98;100.00;94537.44;4378394;32;20300;-63
2023/12/11 06:14:54;;;;;;;0.40;0.27;;;;;;;7.94;100.00;94548.59;4381708;32;20314;-64
2023/12/11 06:17:21;;;;;;;0.10;0.10;;;;;;;7.97;100.00;94544.59;4362941;32;20279;-63
2023/12/11 06:19:47;;;;;;;0.10;0.10;;;;;;;7.98;100.00;94553.28;4379959;32;20300;-63
2023/12/11 06:22:13;;;;;;;0.10;0.10;;;;;;;8.00;100.00;94559.84;4363934;32;20287;-64
2023/12/11 06:24:39;;;;;;;0.00;0.00;;;;;;;8.08;100.00;94563.66;4352523;32;20368;-65
2023/12/11 06:27:14;;;;;;;0.10;0.10;;;;;;;7.94;100.00;94553.88;4345773;32;20367;-64
2023/12/11 06:29:45;;;;;;;0.10;0.10;;;;;;;7.89;100.00;94548.72;4352435;32;20301;-63
2023/12/11 06:32:11;;;;;;;0.10;0.10;;;;;;;7.95;100.00;94541.47;4368552;32;20360;-64
2023/12/11 06:34:38;;;;;;;0.00;0.00;;;;;;;7.96;100.00;94536.97;4365149;32;20361;-63
2023/12/11 06:37:03;;;;;;;0.10;0.10;;;;;;;7.99;100.00;94544.28;4348661;32;20433;-66
2023/12/11 06:39:33;;;;;;;0.03;0.03;;;;;;;8.00;100.00;94522.88;4374159;32;20292;-66
2023/12/11 06:42:00;;;;;;;0.40;0.40;;;;;;;8.08;100.00;94513.47;4350330;32;20219;-64
2023/12/11 06:44:27;;;;;;;0.07;0.07;;;;;;;7.91;100.00;94520.13;4379455;32;20281;-64
2023/12/11 06:46:53;;;;;;;0.10;0.10;;;;;;;8.07;100.00;94531.19;4372739;32;20307;-64
2023/12/11 06:49:21;;;;;;;0.00;0.00;;;;;;;8.07;100.00;94539.13;4340379;32;20289;-61
2023/12/11 06:51:49;;;;;;;3.53;0.20;;;;;;;8.11;100.00;94549.84;4365800;32;20284;-65
2023/12/11 06:54:15;;;;;;;0.10;0.10;;;;;;;8.13;100.00;94550.34;4338694;32;20296;-65
2023/12/11 06:56:42;;;;;;;0.00;0.00;;;;;;;8.12;100.00;94557.47;4325180;32;20285;-64
2023/12/11 06:59:10;;;;;;;0.03;0.03;;;;;;;8.21;100.00;94561.00;4356854;32;20292;-65
2023/12/11 07:01:37;;;;;;;0.10;0.10;;;;;;;8.31;100.00;94548.66;4356455;32;20369;-65
2023/12/11 07:04:05;;;;;;;0.20;0.20;;;;;;;8.31;100.00;94543.37;4327626;32;20297;-65
2023/12/11 07:06:32;;;;;;;0.40;0.40;;;;;;;8.25;100.00;94545.34;4387244;32;20279;-64
2023/12/11 07:09:03;;;;;;;7.20;0.53;;;;;;;8.27;100.00;94538.69;4360689;32;20288;-64
2023/12/11 07:11:30;;;;;;;0.20;0.20;;;;;;;8.39;100.00;94524.97;4364089;32;20223;-64
2023/12/11 07:13:57;;;;;;;1.90;0.40;;;;;;;8.45;100.00;94517.72;4378313;32;20341;-64
2023/12/11 07:16:27;;;;;;;0.17;0.17;;;;;;;8.47;100.00;94520.84;4355606;32;20301;-64
2023/12/11 07:18:55;;;;;;;0.20;0.20;;;;;;;8.56;100.00;94508.44;4373234;32;20287;-65
2023/12/11 07:21:20;;;;;;;0.67;0.17;;;;;;;8.51;100.00;94513.87;4358963;32;20293;-64
2023/12/11 07:24:07;;;;;;;0.23;0.23;;;;;;;8.41;100.00;94520.16;4360695;32;20285;-65
2023/12/11 07:26:34;;;;;;;0.10;0.10;;;;;;;8.44;100.00;94516.94;4371752;32;20193;-64
2023/12/11 07:29:00;;;;;;;0.10;0.10;;;;;;;8.36;100.00;94516.84;4374075;32;20293;-64
2023/12/11 07:31:30;;;;;;;0.00;0.00;;;;;;;8.41;100.00;94527.31;4368165;32;20308;-64
2023/12/11 07:33:56;;;;;;;0.30;0.30;;;;;;;8.44;100.00;94526.72;4385263;32;20311;-64
2023/12/11 07:36:22;;;;;;;0.10;0.10;;;;;;;8.51;100.00;94527.09;4329732;32;20298;-64
2023/12/11 07:38:51;;;;;;;0.10;0.10;;;;;;;8.52;100.00;94523.38;4305344;32;20231;-65
2023/12/11 07:41:22;;;;;;;0.00;0.00;;;;;;;8.55;100.00;94520.09;4355772;32;20300;-65
2023/12/11 07:43:51;;;;;;;0.10;0.10;;;;;;;8.65;100.00;94511.94;4362512;32;20346;-64
2023/12/11 07:46:26;;;;;;;11.60;1.10;;;;;;;8.66;100.00;94500.28;4336618;32;20250;-62
2023/12/11 07:48:56;;;;;;;0.30;0.30;;;;;;;10.24;100.00;94496.84;4338634;32;20359;-62
2023/12/11 07:51:24;;;;;;;0.27;0.07;;;;;;;11.64;100.00;94483.75;4351649;32;20201;-62
2023/12/11 07:53:50;;;;;;;0.47;0.47;;;;;;;12.52;100.00;94474.91;4351611;32;20238;-62
2023/12/11 07:56:19;;;;;;;0.00;0.00;;;;;;;13.21;100.00;94484.94;4359382;32;20209;-62
2023/12/11 07:58:44;;;;;;;9.13;0.33;;;;;;;13.48;99.28;94472.91;4359635;32;20261;-62
2023/12/11 08:01:11;;;;;;;0.10;0.10;;;;;;;13.80;95.98;94482.66;4334357;32;20215;-62
2023/12/11 08:03:41;;;;;;;3.23;1.07;;;;;;;14.07;92.87;94487.31;4362220;32;20226;-62
2023/12/11 08:06:10;;;;;;;0.20;0.20;;;;;;;14.40;99.29;94492.50;4360351;32;20252;-68
2023/12/11 08:08:42;;;;;;;0.10;0.10;;;;;;;13.04;97.15;94491.22;4355994;32;20192;-66
2023/12/11 08:11:25;;;;;;;0.47;0.33;;;;;;;12.21;100.00;94486.75;4353813;32;20253;-66
2023/12/11 08:13:51;;;;;;;2.70;0.40;;;;;;;11.34;100.00;94478.44;4355779;32;20192;-66
2023/12/11 08:16:19;;;;;;;0.10;0.10;;;;;;;10.95;100.00;94474.19;4323071;32;20201;-66
2023/12/11 08:18:45;;;;;;;0.10;0.10;;;;;;;10.90;100.00;94477.00;4375421;32;20291;-66
2023/12/11 08:21:13;;;;;;;0.60;0.40;;;;;;;10.76;100.00;94487.00;4346555;32;20246;-66
2023/12/11 08:23:43;;;;;;;0.00;0.00;;;;;;;10.45;100.00;94465.19;4362050;32;20192;-66
2023/12/11 08:26:12;;;;;;;0.33;0.33;;;;;;;10.38;100.00;94457.72;4357513;32;20200;-66
2023/12/11 08:28:39;;;;;;;0.00;0.00;;;;;;;10.38;100.00;94449.00;4370479;32;20192;-66
2023/12/11 08:31:04;;;;;;;0.20;0.20;;;;;;;10.36;100.00;94441.34;4347944;32;20258;-67
2023/12/11 08:33:31;;;;;;;2.10;0.50;;;;;;;10.27;100.00;94441.34;4353984;32;20193;-67
2023/12/11 08:35:57;;;;;;;0.10;0.00;;;;;;;10.42;100.00;94444.59;4360672;32;20252;-67
2023/12/11 08:38:27;;;;;;;0.10;0.10;;;;;;;10.33;100.00;94442.75;4349549;32;20255;-67
2023/12/11 08:40:53;;;;;;;0.10;0.10;;;;;;;10.31;100.00;94439.63;4371313;32;20205;-66
2023/12/11 08:43:21;;;;;;;0.57;0.47;;;;;;;10.24;100.00;94441.97;4366410;32;20204;-68
2023/12/11 08:45:47;;;;;;;0.33;0.33;;;;;;;9.98;100.00;94433.19;4344637;32;20196;-66
2023/12/11 08:48:18;;;;;;;0.03;0.03;;;;;;;9.92;100.00;94437.09;4360480;32;20302;-67
2023/12/11 08:50:44;;;;;;;0.20;0.20;;;;;;;10.06;100.00;94458.94;4350207;32;20251;-67
2023/12/11 08:53:14;;;;;;;0.00;0.00;;;;;;;10.06;100.00;94445.69;4364125;32;20296;-67
2023/12/11 08:55:39;;;;;;;0.10;0.10;;;;;;;10.17;100.00;94446.16;4329565;32;20274;-68
2023/12/11 08:58:07;;;;;;;0.00;0.00;;;;;;;10.22;100.00;94448.66;4334368;32;20269;-66
2023/12/11 09:00:37;;;;;;;0.37;0.37;;;;;;;10.31;100.00;94439.63;4341225;32;20213;-67
2023/12/11 09:03:04;;;;;;;0.50;0.27;;;;;;;10.44;100.00;94448.50;4358711;32;20208;-62
2023/12/11 09:05:31;;;;;;;0.30;0.30;;;;;;;11.89;100.00;94437.69;4362356;32;20196;-62
2023/12/11 09:07:58;;;;;;;0.73;0.73;;;;;;;14.55;100.00;94452.87;4345762;32;20210;-62
2023/12/11 09:10:28;;;;;;;0.50;0.50;;;;;;;15.64;93.99;94459.53;4307698;32;20243;-63
2023/12/11 09:12:54;;;;;;;0.93;0.90;;;;;;;16.36;87.12;94463.44;4349140;32;20204;-63
2023/12/11 09:15:23;;;;;;;0.57;0.57;;;;;;;17.04;80.02;94467.50;4352892;32;20264;-63
2023/12/11 09:17:50;;;;;;;1.03;1.03;;;;;;;17.11;77.62;94467.59;4313633;32;20211;-62
2023/12/11 09:20:15;;;;;;;1.10;1.10;;;;;;;17.15;77.40;94479.94;4344837;32;20231;-62
2023/12/11 09:22:42;;;;;;;0.70;0.70;;;;;;;17.22;75.62;94489.25;4365687;32;20192;-63
2023/12/11 09:25:09;;;;;;;0.60;0.60;;;;;;;17.14;74.83;94497.16;4359964;32;20192;-64
2023/12/11 09:27:35;;;;;;;0.50;0.50;;;;;;;16.96;75.97;94501.41;4340397;32;20208;-65
2023/12/11 09:30:09;;;;;;;0.03;0.03;;;;;;;15.76;79.03;94508.34;4368063;32;20197;-65
2023/12/11 09:32:41;;;;;;;0.13;0.13;;;;;;;14.10;86.65;94493.88;4330200;32;20293;-65
2023/12/11 09:35:09;;;;;;;0.17;0.17;;;;;;;13.38;90.52;94474.09;4285671;32;20237;-66
2023/12/11 09:37:37;;;;;;;0.13;0.13;;;;;;;12.59;95.94;94488.47;4335750;32;20184;-64
2023/12/11 09:40:08;;;;;;;0.10;0.10;;;;;;;11.99;100.00;94508.31;4327037;32;20220;-65
2023/12/11 09:42:39;;;;;;;0.00;0.00;;;;;;;11.65;100.00;94477.34;4352671;32;20228;-66
2023/12/11 09:45:06;;;;;;;0.10;0.10;;;;;;;11.47;100.00;94468.69;4358335;32;20262;-65
2023/12/11 09:47:40;;;;;;;1.07;0.33;;;;;;;11.04;100.00;94452.91;4361283;32;20211;-65
2023/12/11 09:50:09;;;;;;;0.20;0.20;;;;;;;10.83;100.00;94439.53;4377148;32;20196;-65
2023/12/11 09:52:40;;;;;;;0.43;0.40;;;;;;;10.98;100.00;94430.31;4339631;32;20240;-65
2023/12/11 09:55:06;;;;;;;0.10;0.10;;;;;;;10.74;100.00;94428.19;4340512;32;20268;-66
2023/12/11 09:57:33;;;;;;;0.10;0.10;;;;;;;10.73;100.00;94434.59;4371575;32;20196;-66
2023/12/11 10:00:01;;;;;;;0.07;0.07;;;;;;;10.84;100.00;94422.53;4357337;32;20197;-65
2023/12/11 10:02:27;;;;;;;5.10;0.33;;;;;;;10.74;100.00;94414.94;4350667;32;20210;-65
2023/12/11 10:05:12;;;;;;;0.00;0.00;;;;;;;10.53;100.00;94390.16;4357740;32;20228;-62
2023/12/11 10:07:43;;;;;;;1.23;0.37;;;;;;;10.68;100.00;94394.97;4350328;32;20208;-65
2023/12/11 10:10:33;;;;;;;0.10;0.10;;;;;;;10.80;100.00;94421.63;4388554;32;20201;-65
2023/12/11 10:13:01;;;;;;;0.63;0.43;;;;;;;10.72;100.00;94456.12;4370548;32;20208;-65
2023/12/11 10:15:31;;;;;;;0.10;0.10;;;;;;;10.57;100.00;94474.09;4365097;32;20212;-66
2023/12/11 10:18:11;;;;;;;0.20;0.20;;;;;;;10.57;100.00;94479.41;4364402;32;20215;-65
2023/12/11 10:20:40;;;;;;;0.00;0.00;;;;;;;10.24;100.00;94487.03;4343820;32;20197;-65
2023/12/11 10:23:16;;;;;;;0.00;0.00;;;;;;;10.23;100.00;94493.41;4359974;32;20193;-65
2023/12/11 10:25:45;;;;;;;1.00;0.60;;;;;;;10.24;100.00;94487.03;4326557;32;20327;-65
2023/12/11 10:28:17;;;;;;;0.00;0.00;;;;;;;10.21;100.00;94492.16;4339879;32;20272;-65
2023/12/11 10:31:06;;;;;;;1.90;0.37;;;;;;;10.19;100.00;94478.44;4375957;32;20211;-64
2023/12/11 10:33:33;;;;;;;0.07;0.07;;;;;;;10.23;100.00;94482.03;4374232;32;20258;-65
2023/12/11 10:36:19;;;;;;;0.03;0.03;;;;;;;10.27;100.00;94480.31;4361432;32;20197;-65
2023/12/11 10:39:40;;;;;;;0.00;0.00;;;;;;;10.37;100.00;94480.03;4317682;32;20189;-64
2023/12/11 10:42:16;;;;;;;0.00;0.00;;;;;;;10.44;100.00;94480.31;4376114;32;20193;-64
2023/12/11 10:44:48;;;;;;;0.70;0.30;;;;;;;10.20;100.00;94470.19;4342314;32;20277;-65
2023/12/11 10:47:15;;;;;;;0.03;0.03;;;;;;;10.42;100.00;94471.12;4348841;32;20234;-65
2023/12/11 10:49:45;;;;;;;0.67;0.67;;;;;;;10.62;100.00;94460.66;4372072;32;20264;-65
2023/12/11 10:52:12;;;;;;;0.10;0.10;;;;;;;10.78;100.00;94458.31;4329304;32;20397;-64
2023/12/11 10:54:41;;;;;;;0.40;0.40;;;;;;;10.91;100.00;94446.72;4334754;32;20204;-64
2023/12/11 10:57:15;;;;;;;0.30;0.30;;;;;;;10.81;100.00;94438.28;4352617;32;20264;-65
2023/12/11 10:59:44;;;;;;;0.13;0.13;;;;;;;10.72;100.00;94424.28;4362085;32;20347;-64
2023/12/11 11:02:15;;;;;;;0.77;0.30;;;;;;;10.54;100.00;94426.19;4375101;32;20254;-65
2023/12/11 11:04:46;;;;;;;0.20;0.20;;;;;;;10.54;100.00;94434.94;4352868;32;20306;-65
2023/12/11 11:07:25;;;;;;;0.30;0.27;;;;;;;10.46;100.00;94437.59;4376317;32;20200;-63
2023/12/11 11:10:15;;;;;;;0.10;0.10;;;;;;;10.27;100.00;94449.28;4367964;32;20227;-63
2023/12/11 11:13:15;;;;;;;0.30;0.30;;;;;;;10.25;100.00;94462.09;4358900;32;20338;-63
2023/12/11 11:15:40;;;;;;;0.03;0.03;;;;;;;10.07;100.00;94472.94;4351548;32;20262;-64
2023/12/11 11:18:14;;;;;;;0.00;0.00;;;;;;;10.09;100.00;94468.91;4364953;32;20257;-63
2023/12/11 11:20:41;;;;;;;0.20;0.20;;;;;;;10.07;100.00;94480.91;4348761;32;20201;-64
2023/12/11 11:23:26;;;;;;;0.10;0.10;;;;;;;10.05;100.00;94483.09;4370370;32;20201;-64
2023/12/11 11:25:53;;;;;;;0.10;0.10;;;;;;;9.97;100.00;94487.28;4326514;32;20215;-61
2023/12/11 11:28:50;;;;;;;0.00;0.00;;;;;;;10.13;100.00;94480.44;4313150;32;20272;-64
2023/12/11 11:31:15;;;;;;;0.00;0.00;;;;;;;9.97;100.00;94474.06;4318299;32;20201;-64
2023/12/11 11:33:51;;;;;;;1.37;0.37;;;;;;;10.05;100.00;94469.84;4350688;32;20325;-64
2023/12/11 11:36:21;;;;;;;0.40;0.30;;;;;;;10.12;100.00;94455.03;4350003;32;20243;-64
2023/12/11 11:39:01;;;;;;;0.13;0.13;;;;;;;10.08;100.00;94427.59;4320341;32;20197;-64